sensor_id;sensor_type;location;lat;lon;timestamp;pressure;altitude;pressure_sealevel;temperature;humidity
20622;BME280;10470;42.670;23.354;2023-02-13T00:01:28;96498.50;;;0.07;100.00
20622;BME280;10470;42.670;23.354;2023-02-13T00:04:13;96489.84;;;-0.03;100.00
20622;BME280;10470;42.670;23.354;2023-02-13T00:06:58;96494.84;;;0.11;100.00
20622;BME280;10470;42.670;23.354;2023-02-13T00:09:44;96494.47;;;0.13;100.00
20622;BME280;10470;42.670;23.354;2023-02-13T00:12:29;96492.03;;;0.08;100.00
20622;BME280;10470;42.670;23.354;2023-02-13T00:15:15;96493.03;;;0.15;100.00
20622;BME280;10470;42.670;23.354;2023-02-13T00:18:01;96484.34;;;0.06;100.00
20622;BME280;10470;42.670;23.354;2023-02-13T00:20:56;96502.66;;;0.16;100.00
20622;BME280;10470;42.670;23.354;2023-02-13T00:23:42;96507.09;;;0.25;100.00
20622;BME280;10470;42.670;23.354;2023-02-13T00:26:27;96500.16;;;0.36;100.00
20622;BME280;10470;42.670;23.354;2023-02-13T00:29:12;96493.03;;;0.15;100.00
20622;BME280;10470;42.670;23.354;2023-02-13T00:31:58;96507.19;;;0.28;100.00
20622;BME280;10470;42.670;23.354;2023-02-13T00:34:45;96503.88;;;0.31;100.00
20622;BME280;10470;42.670;23.354;2023-02-13T00:37:32;96507.44;;;0.23;100.00
20622;BME280;10470;42.670;23.354;2023-02-13T00:40:17;96500.97;;;0.24;100.00
20622;BME280;10470;42.670;23.354;2023-02-13T00:43:03;96512.00;;;0.22;100.00
20622;BME280;10470;42.670;23.354;2023-02-13T00:45:48;96516.59;;;0.22;100.00
20622;BME280;10470;42.670;23.354;2023-02-13T00:48:34;96515.47;;;0.23;100.00
20622;BME280;10470;42.670;23.354;2023-02-13T00:51:20;96518.59;;;0.25;100.00
20622;BME280;10470;42.670;23.354;2023-02-13T00:54:05;96516.91;;;0.20;100.00
20622;BME280;10470;42.670;23.354;2023-02-13T00:56:50;96512.47;;;0.25;100.00
20622;BME280;10470;42.670;23.354;2023-02-13T00:59:36;96522.06;;;0.26;100.00
20622;BME280;10470;42.670;23.354;2023-02-13T01:02:21;96521.41;;;0.29;100.00
20622;BME280;10470;42.670;23.354;2023-02-13T01:05:07;96524.50;;;0.31;100.00
20622;BME280;10470;42.670;23.354;2023-02-13T01:07:53;96525.63;;;0.30;100.00
20622;BME280;10470;42.670;23.354;2023-02-13T01:10:39;96524.84;;;0.29;100.00
20622;BME280;10470;42.670;23.354;2023-02-13T01:13:25;96521.94;;;0.34;100.00
20622;BME280;10470;42.670;23.354;2023-02-13T01:16:11;96523.50;;;0.35;100.00
20622;BME280;10470;42.670;23.354;2023-02-13T01:18:57;96516.03;;;0.29;100.00
20622;BME280;10470;42.670;23.354;2023-02-13T01:21:42;96519.13;;;0.31;100.00
20622;BME280;10470;42.670;23.354;2023-02-13T01:24:30;96524.72;;;0.38;100.00
20622;BME280;10470;42.670;23.354;2023-02-13T01:27:17;96533.00;;;0.33;100.00
20622;BME280;10470;42.670;23.354;2023-02-13T01:30:04;96523.50;;;0.35;100.00
20622;BME280;10470;42.670;23.354;2023-02-13T01:32:54;96517.69;;;0.46;100.00
20622;BME280;10470;42.670;23.354;2023-02-13T01:35:40;96525.28;;;0.43;100.00
20622;BME280;10470;42.670;23.354;2023-02-13T01:38:25;96533.63;;;0.54;100.00
20622;BME280;10470;42.670;23.354;2023-02-13T01:41:10;96535.84;;;0.64;100.00
20622;BME280;10470;42.670;23.354;2023-02-13T01:43:58;96531.53;;;0.48;100.00
20622;BME280;10470;42.670;23.354;2023-02-13T01:46:44;96524.34;;;0.52;100.00
20622;BME280;10470;42.670;23.354;2023-02-13T01:49:31;96515.47;;;0.35;100.00
20622;BME280;10470;42.670;23.354;2023-02-13T01:52:16;96542.00;;;0.65;100.00
20622;BME280;10470;42.670;23.354;2023-02-13T01:55:03;96538.72;;;0.72;100.00
20622;BME280;10470;42.670;23.354;2023-02-13T01:57:57;96547.13;;;0.70;100.00
20622;BME280;10470;42.670;23.354;2023-02-13T02:00:45;96549.94;;;0.49;100.00
20622;BME280;10470;42.670;23.354;2023-02-13T02:03:50;96546.09;;;0.75;100.00
20622;BME280;10470;42.670;23.354;2023-02-13T02:06:45;96538.09;;;0.62;100.00
20622;BME280;10470;42.670;23.354;2023-02-13T02:09:35;96540.09;;;0.65;100.00
20622;BME280;10470;42.670;23.354;2023-02-13T02:12:30;96538.72;;;0.72;100.00
20622;BME280;10470;42.670;23.354;2023-02-13T02:15:17;96543.09;;;0.76;100.00
20622;BME280;10470;42.670;23.354;2023-02-13T02:18:18;96547.28;;;0.90;100.00
20622;BME280;10470;42.670;23.354;2023-02-13T02:24:16;96534.84;;;0.57;100.00
20622;BME280;10470;42.670;23.354;2023-02-13T02:46:09;96549.84;;;0.46;100.00
20622;BME280;10470;42.670;23.354;2023-02-13T02:52:13;96563.03;;;0.51;100.00
20622;BME280;10470;42.670;23.354;2023-02-13T02:55:17;96528.44;;;0.21;100.00
20622;BME280;10470;42.670;23.354;2023-02-13T02:58:24;96567.16;;;0.60;100.00
20622;BME280;10470;42.670;23.354;2023-02-13T03:01:32;96567.47;;;0.71;100.00
20622;BME280;10470;42.670;23.354;2023-02-13T03:04:46;96564.78;;;0.59;100.00
20622;BME280;10470;42.670;23.354;2023-02-13T03:07:51;96566.25;;;0.56;100.00
20622;BME280;10470;42.670;23.354;2023-02-13T03:10:37;96567.63;;;0.38;100.00
20622;BME280;10470;42.670;23.354;2023-02-13T03:13:45;96568.94;;;0.44;100.00
20622;BME280;10470;42.670;23.354;2023-02-13T03:16:32;96569.97;;;0.39;100.00
20622;BME280;10470;42.670;23.354;2023-02-13T03:23:28;96564.25;;;0.65;100.00
20622;BME280;10470;42.670;23.354;2023-02-13T03:29:56;96565.91;;;0.70;100.00
20622;BME280;10470;42.670;23.354;2023-02-13T03:42:35;96566.00;;;0.74;100.00
20622;BME280;10470;42.670;23.354;2023-02-13T03:45:28;96568.44;;;0.79;100.00
20622;BME280;10470;42.670;23.354;2023-02-13T03:48:35;96574.84;;;0.62;100.00
20622;BME280;10470;42.670;23.354;2023-02-13T03:52:12;96574.63;;;0.67;100.00
20622;BME280;10470;42.670;23.354;2023-02-13T03:55:06;96569.00;;;0.72;100.00
20622;BME280;10470;42.670;23.354;2023-02-13T03:58:28;96570.84;;;0.56;100.00
20622;BME280;10470;42.670;23.354;2023-02-13T04:01:35;96573.06;;;0.66;100.00
20622;BME280;10470;42.670;23.354;2023-02-13T04:07:21;96572.63;;;0.64;100.00
20622;BME280;10470;42.670;23.354;2023-02-13T04:10:16;96574.75;;;0.71;100.00
20622;BME280;10470;42.670;23.354;2023-02-13T04:13:09;96569.22;;;0.79;100.00
20622;BME280;10470;42.670;23.354;2023-02-13T04:16:11;96579.06;;;0.75;100.00
20622;BME280;10470;42.670;23.354;2023-02-13T04:18:59;96575.84;;;0.70;100.00
20622;BME280;10470;42.670;23.354;2023-02-13T04:21:48;96577.97;;;0.64;100.00
20622;BME280;10470;42.670;23.354;2023-02-13T04:24:34;96585.09;;;0.72;100.00
20622;BME280;10470;42.670;23.354;2023-02-13T04:27:20;96587.47;;;0.61;100.00
20622;BME280;10470;42.670;23.354;2023-02-13T04:30:06;96597.13;;;0.50;100.00
20622;BME280;10470;42.670;23.354;2023-02-13T04:32:52;96594.22;;;0.43;100.00
20622;BME280;10470;42.670;23.354;2023-02-13T04:35:37;96585.25;;;0.39;100.00
20622;BME280;10470;42.670;23.354;2023-02-13T04:38:23;96582.56;;;0.51;100.00
20622;BME280;10470;42.670;23.354;2023-02-13T04:41:08;96587.94;;;0.63;100.00
20622;BME280;10470;42.670;23.354;2023-02-13T04:43:54;96577.75;;;0.57;100.00
20622;BME280;10470;42.670;23.354;2023-02-13T04:46:39;96581.78;;;0.63;100.00
20622;BME280;10470;42.670;23.354;2023-02-13T04:49:24;96585.56;;;0.62;100.00
20622;BME280;10470;42.670;23.354;2023-02-13T04:52:10;96592.16;;;0.64;100.00
20622;BME280;10470;42.670;23.354;2023-02-13T04:54:55;96597.88;;;0.63;100.00
20622;BME280;10470;42.670;23.354;2023-02-13T04:57:41;96607.06;;;0.37;100.00
20622;BME280;10470;42.670;23.354;2023-02-13T05:00:27;96604.84;;;0.39;100.00
20622;BME280;10470;42.670;23.354;2023-02-13T05:03:13;96613.78;;;0.31;100.00
20622;BME280;10470;42.670;23.354;2023-02-13T05:05:58;96603.59;;;0.37;100.00
20622;BME280;10470;42.670;23.354;2023-02-13T05:08:44;96617.22;;;0.44;100.00
20622;BME280;10470;42.670;23.354;2023-02-13T05:11:29;96620.47;;;0.37;100.00
20622;BME280;10470;42.670;23.354;2023-02-13T05:14:14;96619.22;;;0.10;100.00
20622;BME280;10470;42.670;23.354;2023-02-13T05:17:00;96623.13;;;0.25;100.00
20622;BME280;10470;42.670;23.354;2023-02-13T05:19:45;96616.75;;;0.17;100.00
20622;BME280;10470;42.670;23.354;2023-02-13T05:22:31;96628.16;;;0.14;100.00
20622;BME280;10470;42.670;23.354;2023-02-13T05:25:36;96631.06;;;0.21;100.00
20622;BME280;10470;42.670;23.354;2023-02-13T05:28:22;96624.69;;;0.14;100.00
20622;BME280;10470;42.670;23.354;2023-02-13T05:31:25;96623.59;;;0.27;100.00
20622;BME280;10470;42.670;23.354;2023-02-13T05:34:11;96626.72;;;0.29;100.00
20622;BME280;10470;42.670;23.354;2023-02-13T05:36:56;96625.28;;;0.32;100.00
20622;BME280;10470;42.670;23.354;2023-02-13T05:39:42;96626.38;;;0.18;100.00
20622;BME280;10470;42.670;23.354;2023-02-13T05:42:27;96640.13;;;0.29;100.00
20622;BME280;10470;42.670;23.354;2023-02-13T05:45:13;96640.13;;;0.29;100.00
20622;BME280;10470;42.670;23.354;2023-02-13T05:48:00;96642.88;;;0.20;100.00
20622;BME280;10470;42.670;23.354;2023-02-13T05:50:46;96633.63;;;0.06;100.00
20622;BME280;10470;42.670;23.354;2023-02-13T05:53:32;96643.25;;;0.19;100.00
20622;BME280;10470;42.670;23.354;2023-02-13T05:56:21;96639.34;;;0.16;100.00
20622;BME280;10470;42.670;23.354;2023-02-13T05:59:07;96646.47;;;0.25;100.00
20622;BME280;10470;42.670;23.354;2023-02-13T06:01:52;96645.44;;;0.05;100.00
20622;BME280;10470;42.670;23.354;2023-02-13T06:04:38;96635.19;;;0.07;100.00
20622;BME280;10470;42.670;23.354;2023-02-13T06:07:25;96649.13;;;0.12;100.00
20622;BME280;10470;42.670;23.354;2023-02-13T06:10:10;96646.28;;;-0.16;100.00
20622;BME280;10470;42.670;23.354;2023-02-13T06:12:56;96640.88;;;0.17;100.00
20622;BME280;10470;42.670;23.354;2023-02-13T06:15:42;96651.28;;;0.19;100.00
20622;BME280;10470;42.670;23.354;2023-02-13T06:18:27;96664.13;;;0.26;100.00
20622;BME280;10470;42.670;23.354;2023-02-13T06:21:13;96664.13;;;0.38;100.00
20622;BME280;10470;42.670;23.354;2023-02-13T06:23:58;96660.91;;;0.32;100.00
20622;BME280;10470;42.670;23.354;2023-02-13T06:26:44;96665.16;;;0.46;100.00
20622;BME280;10470;42.670;23.354;2023-02-13T06:29:29;96656.06;;;0.26;100.00
20622;BME280;10470;42.670;23.354;2023-02-13T06:32:17;96663.69;;;0.48;100.00
20622;BME280;10470;42.670;23.354;2023-02-13T06:35:02;96672.06;;;0.59;100.00
20622;BME280;10470;42.670;23.354;2023-02-13T06:37:48;96674.66;;;0.55;100.00
20622;BME280;10470;42.670;23.354;2023-02-13T06:40:33;96667.16;;;0.49;100.00
20622;BME280;10470;42.670;23.354;2023-02-13T06:43:19;96679.69;;;0.69;100.00
20622;BME280;10470;42.670;23.354;2023-02-13T06:46:05;96681.91;;;0.67;100.00
20622;BME280;10470;42.670;23.354;2023-02-13T06:48:51;96680.59;;;0.73;100.00
20622;BME280;10470;42.670;23.354;2023-02-13T06:51:36;96677.13;;;0.73;100.00
20622;BME280;10470;42.670;23.354;2023-02-13T06:54:22;96678.44;;;0.91;100.00
20622;BME280;10470;42.670;23.354;2023-02-13T06:57:07;96668.50;;;0.92;100.00
20622;BME280;10470;42.670;23.354;2023-02-13T06:59:53;96662.22;;;1.00;100.00
20622;BME280;10470;42.670;23.354;2023-02-13T07:02:43;96672.72;;;1.05;100.00
20622;BME280;10470;42.670;23.354;2023-02-13T07:05:29;96674.84;;;1.12;100.00
20622;BME280;10470;42.670;23.354;2023-02-13T07:08:14;96665.88;;;1.07;100.00
20622;BME280;10470;42.670;23.354;2023-02-13T07:11:00;96669.22;;;1.17;100.00
20622;BME280;10470;42.670;23.354;2023-02-13T07:13:45;96668.16;;;1.34;100.00
20622;BME280;10470;42.670;23.354;2023-02-13T07:16:31;96673.44;;;1.30;100.00
20622;BME280;10470;42.670;23.354;2023-02-13T07:19:16;96684.63;;;1.32;100.00
20622;BME280;10470;42.670;23.354;2023-02-13T07:22:02;96681.38;;;1.39;100.00
20622;BME280;10470;42.670;23.354;2023-02-13T07:24:47;96684.25;;;1.46;100.00
20622;BME280;10470;42.670;23.354;2023-02-13T07:27:33;96666.78;;;1.12;100.00
20622;BME280;10470;42.670;23.354;2023-02-13T07:30:19;96683.84;;;1.31;100.00
20622;BME280;10470;42.670;23.354;2023-02-13T07:33:04;96682.88;;;1.52;100.00
20622;BME280;10470;42.670;23.354;2023-02-13T07:35:50;96686.09;;;1.58;100.00
20622;BME280;10470;42.670;23.354;2023-02-13T07:38:36;96694.94;;;1.58;100.00
20622;BME280;10470;42.670;23.354;2023-02-13T07:41:21;96686.09;;;1.58;100.00
20622;BME280;10470;42.670;23.354;2023-02-13T07:44:10;96686.56;;;1.60;100.00
20622;BME280;10470;42.670;23.354;2023-02-13T07:46:56;96680.59;;;1.66;100.00
20622;BME280;10470;42.670;23.354;2023-02-13T07:49:41;96686.25;;;1.49;100.00
20622;BME280;10470;42.670;23.354;2023-02-13T07:52:28;96674.34;;;1.62;100.00
20622;BME280;10470;42.670;23.354;2023-02-13T07:55:13;96688.78;;;1.86;100.00
20622;BME280;10470;42.670;23.354;2023-02-13T07:57:59;96684.31;;;1.90;100.00
20622;BME280;10470;42.670;23.354;2023-02-13T08:00:45;96685.09;;;1.90;100.00
20622;BME280;10470;42.670;23.354;2023-02-13T08:03:31;96687.41;;;1.92;100.00
20622;BME280;10470;42.670;23.354;2023-02-13T08:06:17;96691.44;;;1.98;100.00
20622;BME280;10470;42.670;23.354;2023-02-13T08:09:04;96693.00;;;1.71;100.00
20622;BME280;10470;42.670;23.354;2023-02-13T08:12:09;96680.97;;;1.81;100.00
20622;BME280;10470;42.670;23.354;2023-02-13T08:14:55;96683.38;;;2.14;100.00
20622;BME280;10470;42.670;23.354;2023-02-13T08:17:40;96674.28;;;2.03;100.00
20622;BME280;10470;42.670;23.354;2023-02-13T08:20:26;96671.44;;;2.27;100.00
20622;BME280;10470;42.670;23.354;2023-02-13T08:23:11;96685.34;;;1.85;100.00
20622;BME280;10470;42.670;23.354;2023-02-13T08:26:00;96690.03;;;2.04;100.00
20622;BME280;10470;42.670;23.354;2023-02-13T08:28:46;96681.13;;;2.00;100.00
20622;BME280;10470;42.670;23.354;2023-02-13T08:31:31;96688.63;;;1.94;100.00
20622;BME280;10470;42.670;23.354;2023-02-13T08:34:17;96687.81;;;1.78;100.00
20622;BME280;10470;42.670;23.354;2023-02-13T08:37:03;96686.03;;;1.82;100.00
20622;BME280;10470;42.670;23.354;2023-02-13T08:39:49;96687.81;;;1.78;100.00
20622;BME280;10470;42.670;23.354;2023-02-13T08:42:35;96680.69;;;2.14;100.00
20622;BME280;10470;42.670;23.354;2023-02-13T08:45:21;96688.97;;;2.21;100.00
20622;BME280;10470;42.670;23.354;2023-02-13T08:48:06;96697.88;;;1.81;100.00
20622;BME280;10470;42.670;23.354;2023-02-13T08:50:52;96678.56;;;1.91;100.00
20622;BME280;10470;42.670;23.354;2023-02-13T08:53:37;96683.31;;;2.10;100.00
20622;BME280;10470;42.670;23.354;2023-02-13T08:56:23;96687.81;;;2.06;100.00
20622;BME280;10470;42.670;23.354;2023-02-13T08:59:08;96690.50;;;1.78;100.00
20622;BME280;10470;42.670;23.354;2023-02-13T09:01:54;96686.38;;;1.96;100.00
20622;BME280;10470;42.670;23.354;2023-02-13T09:04:39;96687.16;;;1.97;100.00
20622;BME280;10470;42.670;23.354;2023-02-13T09:07:25;96676.41;;;1.97;100.00
20622;BME280;10470;42.670;23.354;2023-02-13T09:10:10;96682.44;;;2.06;100.00
20622;BME280;10470;42.670;23.354;2023-02-13T09:12:56;96693.19;;;2.22;100.00
20622;BME280;10470;42.670;23.354;2023-02-13T09:15:41;96684.09;;;2.11;100.00
20622;BME280;10470;42.670;23.354;2023-02-13T09:18:27;96679.50;;;2.43;100.00
20622;BME280;10470;42.670;23.354;2023-02-13T09:21:13;96677.50;;;2.56;100.00
20622;BME280;10470;42.670;23.354;2023-02-13T09:23:59;96687.91;;;2.89;100.00
20622;BME280;10470;42.670;23.354;2023-02-13T09:26:44;96679.16;;;2.76;100.00
20622;BME280;10470;42.670;23.354;2023-02-13T09:29:29;96677.69;;;2.31;100.00
20622;BME280;10470;42.670;23.354;2023-02-13T09:32:17;96673.84;;;2.80;100.00
20622;BME280;10470;42.670;23.354;2023-02-13T09:35:03;96680.09;;;2.84;100.00
20622;BME280;10470;42.670;23.354;2023-02-13T09:37:50;96676.25;;;2.85;100.00
20622;BME280;10470;42.670;23.354;2023-02-13T09:41:01;96671.88;;;3.12;100.00
20622;BME280;10470;42.670;23.354;2023-02-13T09:43:51;96665.66;;;3.27;100.00
20622;BME280;10470;42.670;23.354;2023-02-13T09:46:39;96666.88;;;2.95;100.00
20622;BME280;10470;42.670;23.354;2023-02-13T09:49:27;96660.03;;;2.81;100.00
20622;BME280;10470;42.670;23.354;2023-02-13T09:52:15;96650.03;;;2.82;100.00
20622;BME280;10470;42.670;23.354;2023-02-13T09:55:01;96645.09;;;3.19;100.00
20622;BME280;10470;42.670;23.354;2023-02-13T09:58:16;96645.13;;;3.58;100.00
20622;BME280;10470;42.670;23.354;2023-02-13T10:01:18;96652.28;;;2.96;100.00
20622;BME280;10470;42.670;23.354;2023-02-13T10:07:23;96639.78;;;3.42;100.00
20622;BME280;10470;42.670;23.354;2023-02-13T10:16:39;96629.28;;;3.57;100.00
20622;BME280;10470;42.670;23.354;2023-02-13T10:19:34;96624.66;;;4.46;100.00
20622;BME280;10470;42.670;23.354;2023-02-13T10:22:42;96627.03;;;4.01;100.00
20622;BME280;10470;42.670;23.354;2023-02-13T10:25:39;96607.78;;;4.26;100.00
20622;BME280;10470;42.670;23.354;2023-02-13T10:31:21;96611.59;;;4.02;100.00
20622;BME280;10470;42.670;23.354;2023-02-13T10:34:13;96603.81;;;4.20;100.00
20622;BME280;10470;42.670;23.354;2023-02-13T10:37:00;96601.25;;;4.27;100.00
20622;BME280;10470;42.670;23.354;2023-02-13T10:39:48;96598.03;;;4.67;100.00
20622;BME280;10470;42.670;23.354;2023-02-13T10:42:51;96605.91;;;4.53;100.00
20622;BME280;10470;42.670;23.354;2023-02-13T10:46:02;96600.63;;;4.60;100.00
20622;BME280;10470;42.670;23.354;2023-02-13T10:49:17;96591.91;;;5.00;100.00
20622;BME280;10470;42.670;23.354;2023-02-13T11:04:34;96573.16;;;5.45;100.00
20622;BME280;10470;42.670;23.354;2023-02-13T11:07:33;96570.66;;;6.00;100.00
20622;BME280;10470;42.670;23.354;2023-02-13T11:10:21;96568.03;;;6.63;100.00
20622;BME280;10470;42.670;23.354;2023-02-13T11:13:16;96560.88;;;5.92;100.00
20622;BME280;10470;42.670;23.354;2023-02-13T11:16:08;96569.16;;;6.54;100.00
20622;BME280;10470;42.670;23.354;2023-02-13T11:18:54;96560.34;;;6.17;100.00
20622;BME280;10470;42.670;23.354;2023-02-13T11:21:40;96548.47;;;6.32;100.00
20622;BME280;10470;42.670;23.354;2023-02-13T11:24:26;96546.28;;;7.25;100.00
20622;BME280;10470;42.670;23.354;2023-02-13T11:27:12;96542.59;;;8.05;100.00
20622;BME280;10470;42.670;23.354;2023-02-13T11:30:33;96540.34;;;6.94;100.00
20622;BME280;10470;42.670;23.354;2023-02-13T11:33:23;96530.56;;;7.84;100.00
20622;BME280;10470;42.670;23.354;2023-02-13T11:36:23;96530.13;;;8.83;100.00
20622;BME280;10470;42.670;23.354;2023-02-13T11:39:20;96529.38;;;7.85;100.00
20622;BME280;10470;42.670;23.354;2023-02-13T11:42:20;96517.16;;;7.04;100.00
20622;BME280;10470;42.670;23.354;2023-02-13T11:45:20;96515.78;;;7.68;100.00
20622;BME280;10470;42.670;23.354;2023-02-13T11:48:19;96506.91;;;7.71;100.00
20622;BME280;10470;42.670;23.354;2023-02-13T11:51:05;96499.44;;;8.79;100.00
20622;BME280;10470;42.670;23.354;2023-02-13T11:53:50;96492.06;;;8.79;100.00
20622;BME280;10470;42.670;23.354;2023-02-13T11:56:51;96501.81;;;9.61;100.00
20622;BME280;10470;42.670;23.354;2023-02-13T11:59:42;96483.59;;;10.06;100.00
20622;BME280;10470;42.670;23.354;2023-02-13T12:02:30;96486.16;;;9.02;100.00
20622;BME280;10470;42.670;23.354;2023-02-13T12:05:30;96475.97;;;9.24;100.00
20622;BME280;10470;42.670;23.354;2023-02-13T12:08:15;96482.19;;;9.25;100.00
20622;BME280;10470;42.670;23.354;2023-02-13T12:11:09;96465.41;;;9.96;100.00
20622;BME280;10470;42.670;23.354;2023-02-13T12:13:59;96470.69;;;10.93;89.67
20622;BME280;10470;42.670;23.354;2023-02-13T12:16:51;96470.25;;;9.71;85.17
20622;BME280;10470;42.670;23.354;2023-02-13T12:19:43;96479.38;;;9.39;86.04
20622;BME280;10470;42.670;23.354;2023-02-13T12:25:36;96474.63;;;9.57;85.83
20622;BME280;10470;42.670;23.354;2023-02-13T12:28:33;96478.66;;;10.77;78.99
20622;BME280;10470;42.670;23.354;2023-02-13T12:31:26;96470.47;;;11.42;71.41
20622;BME280;10470;42.670;23.354;2023-02-13T12:37:18;96464.53;;;10.52;67.67
20622;BME280;10470;42.670;23.354;2023-02-13T12:43:40;96460.78;;;9.90;65.57
20622;BME280;10470;42.670;23.354;2023-02-13T12:46:43;96456.34;;;10.86;64.53
20622;BME280;10470;42.670;23.354;2023-02-13T12:50:13;96439.81;;;10.69;62.93
20622;BME280;10470;42.670;23.354;2023-02-13T12:59:09;96450.63;;;11.65;56.88
20622;BME280;10470;42.670;23.354;2023-02-13T13:05:26;96435.06;;;11.62;56.04
20622;BME280;10470;42.670;23.354;2023-02-13T13:11:58;96439.94;;;12.01;54.90
20622;BME280;10470;42.670;23.354;2023-02-13T13:15:09;96438.56;;;13.17;52.99
20622;BME280;10470;42.670;23.354;2023-02-13T13:24:52;96434.03;;;15.16;48.73
20622;BME280;10470;42.670;23.354;2023-02-13T13:27:44;96431.53;;;15.34;48.19
20622;BME280;10470;42.670;23.354;2023-02-13T13:30:33;96435.28;;;14.85;47.02
20622;BME280;10470;42.670;23.354;2023-02-13T13:33:21;96425.19;;;14.37;48.31
20622;BME280;10470;42.670;23.354;2023-02-13T13:39:42;96422.97;;;15.96;45.16
20622;BME280;10470;42.670;23.354;2023-02-13T13:42:40;96418.78;;;14.11;46.56
20622;BME280;10470;42.670;23.354;2023-02-13T13:48:54;96425.97;;;14.21;46.70
20622;BME280;10470;42.670;23.354;2023-02-13T13:51:43;96421.53;;;15.66;45.28
20622;BME280;10470;42.670;23.354;2023-02-13T13:54:32;96422.78;;;14.39;45.94
20622;BME280;10470;42.670;23.354;2023-02-13T13:57:26;96416.69;;;14.02;46.08
20622;BME280;10470;42.670;23.354;2023-02-13T14:03:12;96420.00;;;12.88;47.25
20622;BME280;10470;42.670;23.354;2023-02-13T14:06:06;96423.44;;;13.81;47.88
20622;BME280;10470;42.670;23.354;2023-02-13T14:08:55;96416.94;;;13.91;46.77
20622;BME280;10470;42.670;23.354;2023-02-13T14:11:43;96419.50;;;14.90;47.63
20622;BME280;10470;42.670;23.354;2023-02-13T14:17:16;96393.06;;;13.23;48.04
20622;BME280;10470;42.670;23.354;2023-02-13T14:26:34;96401.94;;;15.00;45.32
20622;BME280;10470;42.670;23.354;2023-02-13T14:29:25;96392.69;;;14.06;46.40
20622;BME280;10470;42.670;23.354;2023-02-13T14:32:21;96384.88;;;12.03;49.56
20622;BME280;10470;42.670;23.354;2023-02-13T14:35:15;96377.38;;;10.06;55.10
20622;BME280;10470;42.670;23.354;2023-02-13T14:38:06;96357.09;;;9.70;59.72
20622;BME280;10470;42.670;23.354;2023-02-13T14:41:02;96360.22;;;9.19;65.82
20622;BME280;10470;42.670;23.354;2023-02-13T14:43:52;96372.81;;;8.92;69.62
20622;BME280;10470;42.670;23.354;2023-02-13T14:46:39;96366.34;;;8.68;74.20
20622;BME280;10470;42.670;23.354;2023-02-13T14:49:33;96362.03;;;8.74;78.49
20622;BME280;10470;42.670;23.354;2023-02-13T14:52:24;96362.16;;;8.38;82.43
20622;BME280;10470;42.670;23.354;2023-02-13T14:55:24;96371.06;;;8.35;83.75
20622;BME280;10470;42.670;23.354;2023-02-13T14:58:14;96357.50;;;8.39;85.92
20622;BME280;10470;42.670;23.354;2023-02-13T15:04:14;96361.53;;;7.70;95.45
20622;BME280;10470;42.670;23.354;2023-02-13T15:07:03;96348.75;;;7.63;97.43
20622;BME280;10470;42.670;23.354;2023-02-13T15:09:53;96356.13;;;7.73;98.24
20622;BME280;10470;42.670;23.354;2023-02-13T15:12:42;96357.66;;;7.63;98.73
20622;BME280;10470;42.670;23.354;2023-02-13T15:15:33;96332.50;;;7.31;100.00
20622;BME280;10470;42.670;23.354;2023-02-13T15:18:25;96349.53;;;7.28;100.00
20622;BME280;10470;42.670;23.354;2023-02-13T15:21:17;96333.66;;;7.15;100.00
20622;BME280;10470;42.670;23.354;2023-02-13T15:24:04;96359.22;;;7.32;100.00
20622;BME280;10470;42.670;23.354;2023-02-13T15:27:01;96356.09;;;7.05;100.00
20622;BME280;10470;42.670;23.354;2023-02-13T15:32:54;96353.72;;;6.82;100.00
20622;BME280;10470;42.670;23.354;2023-02-13T15:35:40;96356.06;;;6.80;100.00
20622;BME280;10470;42.670;23.354;2023-02-13T15:38:32;96359.50;;;6.66;100.00
20622;BME280;10470;42.670;23.354;2023-02-13T15:41:23;96363.38;;;6.69;100.00
20622;BME280;10470;42.670;23.354;2023-02-13T15:44:25;96363.69;;;6.53;100.00
20622;BME280;10470;42.670;23.354;2023-02-13T15:47:29;96369.16;;;6.60;100.00
20622;BME280;10470;42.670;23.354;2023-02-13T15:50:27;96371.50;;;6.62;100.00
20622;BME280;10470;42.670;23.354;2023-02-13T15:53:15;96356.31;;;6.43;100.00
20622;BME280;10470;42.670;23.354;2023-02-13T15:56:03;96366.72;;;6.33;100.00
20622;BME280;10470;42.670;23.354;2023-02-13T15:58:50;96371.28;;;6.19;100.00
20622;BME280;10470;42.670;23.354;2023-02-13T16:01:36;96369.72;;;6.10;100.00
20622;BME280;10470;42.670;23.354;2023-02-13T16:04:23;96370.47;;;6.11;100.00
20622;BME280;10470;42.670;23.354;2023-02-13T16:07:11;96372.75;;;6.02;100.00
20622;BME280;10470;42.670;23.354;2023-02-13T16:13:15;96355.63;;;5.87;100.00
20622;BME280;10470;42.670;23.354;2023-02-13T16:16:07;96371.81;;;5.76;100.00
20622;BME280;10470;42.670;23.354;2023-02-13T16:18:54;96368.56;;;5.60;100.00
20622;BME280;10470;42.670;23.354;2023-02-13T16:21:39;96378.69;;;5.66;100.00
20622;BME280;10470;42.670;23.354;2023-02-13T16:24:25;96375.47;;;5.50;100.00
20622;BME280;10470;42.670;23.354;2023-02-13T16:27:13;96383.19;;;5.48;100.00
20622;BME280;10470;42.670;23.354;2023-02-13T16:30:05;96385.06;;;5.44;100.00
20622;BME280;10470;42.670;23.354;2023-02-13T16:36:15;96385.69;;;5.26;100.00
20622;BME280;10470;42.670;23.354;2023-02-13T16:39:10;96390.22;;;5.15;100.00
20622;BME280;10470;42.670;23.354;2023-02-13T16:41:59;96382.94;;;5.19;100.00
20622;BME280;10470;42.670;23.354;2023-02-13T16:44:45;96387.53;;;5.15;100.00
20622;BME280;10470;42.670;23.354;2023-02-13T16:47:30;96388.59;;;5.03;100.00
20622;BME280;10470;42.670;23.354;2023-02-13T16:50:16;96381.50;;;4.88;100.00
20622;BME280;10470;42.670;23.354;2023-02-13T16:53:02;96376.38;;;4.79;100.00
20622;BME280;10470;42.670;23.354;2023-02-13T16:55:56;96376.34;;;4.76;100.00
20622;BME280;10470;42.670;23.354;2023-02-13T16:58:43;96373.09;;;4.63;100.00
20622;BME280;10470;42.670;23.354;2023-02-13T17:01:29;96374.38;;;4.73;100.00